createdAt,value
2019-05-12T00:01:38.799Z,89.72
2019-05-12T00:07:43.167Z,89.91
2019-05-12T00:13:47.901Z,90.20
2019-05-12T00:19:52.544Z,90.10
2019-05-12T00:25:58.727Z,90.51
2019-05-12T00:32:03.631Z,90.64
2019-05-12T00:38:09.327Z,90.51
2019-05-12T00:44:14.155Z,90.52
2019-05-12T00:50:18.806Z,90.65
2019-05-12T00:56:23.316Z,90.89
2019-05-12T01:02:28.678Z,90.63
2019-05-12T01:08:33.403Z,90.81
2019-05-12T01:14:38.399Z,91.03
2019-05-12T01:20:43.136Z,91.28
2019-05-12T01:26:47.740Z,91.32
2019-05-12T01:32:52.382Z,90.76
2019-05-12T01:38:59.155Z,91.14
2019-05-12T01:45:03.406Z,91.43
2019-05-12T01:51:08.358Z,91.34
2019-05-12T01:57:13.265Z,91.52
2019-05-12T02:03:17.998Z,91.63
2019-05-12T02:09:24.151Z,92.00
2019-05-12T02:15:28.703Z,91.64
2019-05-12T02:21:33.242Z,92.19
2019-05-12T02:27:38.365Z,91.83
2019-05-12T02:33:44.620Z,92.01
2019-05-12T02:39:49.339Z,91.85
2019-05-12T02:45:54.780Z,91.64
2019-05-12T02:51:59.718Z,91.45
2019-05-12T02:58:05.954Z,91.00
2019-05-12T03:04:14.524Z,90.55
2019-05-12T03:10:20.694Z,90.47
2019-05-12T03:16:25.847Z,90.59
2019-05-12T03:22:30.452Z,90.50
2019-05-12T03:28:35.787Z,90.50
2019-05-12T03:34:40.636Z,90.26
2019-05-12T03:40:45.483Z,90.34
2019-05-12T03:46:50.193Z,90.68
2019-05-12T03:52:56.620Z,90.49
2019-05-12T03:59:04.462Z,90.28
2019-05-12T04:05:08.180Z,89.61
2019-05-12T04:11:14.596Z,89.34
2019-05-12T04:17:19.200Z,88.58
2019-05-12T04:23:24.766Z,89.21
2019-05-12T04:29:29.666Z,88.56
2019-05-12T04:35:35.437Z,89.03
2019-05-12T04:41:40.499Z,88.75
2019-05-12T04:47:45.266Z,89.25
2019-05-12T04:53:49.895Z,89.39
2019-05-12T04:59:54.528Z,89.61
2019-05-12T05:05:59.064Z,88.83
2019-05-12T05:12:04.584Z,87.87
2019-05-12T05:18:09.531Z,86.07
2019-05-12T05:24:14.374Z,85.18
2019-05-12T05:30:19.203Z,85.10
2019-05-12T05:36:24.992Z,83.59
2019-05-12T05:42:32.775Z,83.20
2019-05-12T05:48:36.084Z,80.99
2019-05-12T05:54:40.640Z,80.47
2019-05-12T06:00:45.215Z,80.11
2019-05-12T06:06:53.720Z,76.11
2019-05-12T06:12:56.048Z,78.02
2019-05-12T06:19:00.622Z,75.11
2019-05-12T06:25:06.664Z,75.54
2019-05-12T06:31:13.576Z,73.80
2019-05-12T06:37:17.577Z,73.77
2019-05-12T06:43:24.262Z,73.84
2019-05-12T06:49:28.395Z,74.02
2019-05-12T06:55:36.837Z,74.16
2019-05-12T07:01:39.310Z,74.22
2019-05-12T07:07:45.997Z,72.88
2019-05-12T07:14:01.296Z,73.55
2019-05-12T07:19:58.224Z,72.40
2019-05-12T07:26:06.736Z,70.02
2019-05-12T07:32:16.522Z,67.84
2019-05-12T07:38:20.978Z,63.85
2019-05-12T07:44:25.270Z,62.21
2019-05-12T07:50:30.007Z,63.72
2019-05-12T07:56:35.771Z,66.31
2019-05-12T08:02:40.682Z,66.71
2019-05-12T08:08:50.967Z,63.64
2019-05-12T08:14:51.577Z,65.27
2019-05-12T08:20:56.239Z,63.30
2019-05-12T08:27:05.703Z,63.43
2019-05-12T08:33:09.821Z,59.13
2019-05-12T08:39:21.381Z,59.81
2019-05-12T08:45:27.369Z,56.51
2019-05-12T08:51:26.584Z,57.63
2019-05-12T08:57:34.839Z,54.66
2019-05-12T09:03:37.514Z,56.84
2019-05-12T09:09:43.951Z,52.26
2019-05-12T09:15:48.462Z,53.57
2019-05-12T09:21:54.260Z,54.68
2019-05-12T09:27:58.941Z,51.11
2019-05-12T09:34:11.626Z,54.94
2019-05-12T09:40:10.242Z,52.82
2019-05-12T09:46:14.793Z,52.48
2019-05-12T09:52:22.361Z,49.52
2019-05-12T09:58:27.830Z,47.90
2019-05-12T10:04:33.088Z,47.63
2019-05-12T10:10:40.183Z,50.97
2019-05-12T10:16:45.594Z,44.48
2019-05-12T10:22:50.485Z,48.30
2019-05-12T10:28:58.420Z,46.67
2019-05-12T10:35:01.422Z,43.72
2019-05-12T10:41:06.128Z,41.14
2019-05-12T10:47:10.750Z,40.77
2019-05-12T10:53:17.774Z,40.10
2019-05-12T10:59:32.232Z,41.31
2019-05-12T11:05:28.200Z,41.03
2019-05-12T11:11:41.730Z,41.46
2019-05-12T11:17:50.700Z,39.44
2019-05-12T11:23:55.280Z,37.34
2019-05-12T11:29:59.897Z,35.91
2019-05-12T11:36:04.546Z,36.45
2019-05-12T11:42:09.111Z,36.78
2019-05-12T11:48:14.445Z,37.38
2019-05-12T11:54:19.168Z,37.83
2019-05-12T12:00:25.469Z,35.45
2019-05-12T12:06:30.025Z,36.87
2019-05-12T12:12:34.722Z,35.30
2019-05-12T12:18:39.375Z,33.40
2019-05-12T12:24:44.000Z,33.47
2019-05-12T12:30:52.528Z,31.98
2019-05-12T12:36:54.862Z,30.60
2019-05-12T12:42:59.410Z,27.92
2019-05-12T12:49:06.378Z,28.66
2019-05-12T12:55:10.375Z,28.01
2019-05-12T13:01:21.935Z,26.80
2019-05-12T13:07:21.373Z,27.29
2019-05-12T13:13:25.940Z,27.48
2019-05-12T13:19:30.499Z,26.99
2019-05-12T13:25:38.898Z,29.35
2019-05-12T13:31:46.355Z,28.71
2019-05-12T13:37:50.268Z,32.34
2019-05-12T13:44:00.046Z,28.87
2019-05-12T13:50:04.078Z,26.26
2019-05-12T13:56:08.826Z,27.39
2019-05-12T14:02:21.851Z,28.62
2019-05-12T14:08:19.650Z,27.39
2019-05-12T14:14:24.288Z,26.46
2019-05-12T14:20:28.841Z,24.54
2019-05-12T14:26:33.533Z,23.96
2019-05-12T14:32:38.117Z,26.64
2019-05-12T14:38:42.664Z,27.44
2019-05-12T14:44:49.678Z,30.48
2019-05-12T14:50:53.677Z,30.15
2019-05-12T14:56:58.256Z,31.94
2019-05-12T15:03:05.463Z,33.95
2019-05-12T15:09:11.477Z,35.78
2019-05-12T15:15:20.456Z,40.54
2019-05-12T15:21:27.345Z,41.42
2019-05-12T15:27:41.212Z,38.97
2019-05-12T15:33:34.785Z,35.09
2019-05-12T15:39:39.331Z,32.51
2019-05-12T15:45:48.846Z,32.01
2019-05-12T15:51:54.158Z,35.67
2019-05-12T15:57:56.583Z,39.36
2019-05-12T16:04:03.516Z,40.84
2019-05-12T16:10:09.614Z,41.64
2019-05-12T16:16:14.412Z,42.68
2019-05-12T16:22:19.047Z,43.46
2019-05-12T16:28:26.594Z,42.54
2019-05-12T16:34:29.973Z,43.98
2019-05-12T16:40:39.275Z,45.69
2019-05-12T16:46:40.893Z,46.85
2019-05-12T16:52:45.718Z,49.33
2019-05-12T16:58:50.376Z,49.83
2019-05-12T17:04:54.944Z,44.67
2019-05-12T17:11:21.703Z,36.96
2019-05-12T17:17:05.971Z,40.34
2019-05-12T17:23:10.527Z,43.62
2019-05-12T17:29:15.185Z,46.05
2019-05-12T17:35:20.173Z,46.86
2019-05-12T17:41:26.171Z,40.02
2019-05-12T17:47:31.994Z,32.83
2019-05-12T17:53:37.821Z,29.79
2019-05-12T17:59:44.795Z,32.30
2019-05-12T18:05:49.824Z,29.92
2019-05-12T18:11:56.316Z,31.17
2019-05-12T18:18:00.770Z,30.39
2019-05-12T18:24:09.655Z,31.40
2019-05-12T18:30:16.633Z,32.55
2019-05-12T18:36:18.815Z,35.27
2019-05-12T18:42:24.598Z,37.51
2019-05-12T18:48:29.431Z,40.79
2019-05-12T18:54:34.556Z,43.90
2019-05-12T19:00:39.490Z,45.55
2019-05-12T19:06:44.225Z,47.67
2019-05-12T19:12:51.551Z,48.43
2019-05-12T19:18:55.698Z,49.37
2019-05-12T19:25:00.543Z,49.96
2019-05-12T19:31:09.856Z,51.10
2019-05-12T19:37:14.115Z,51.52
2019-05-12T19:43:17.815Z,52.18
2019-05-12T19:49:25.803Z,52.26
2019-05-12T19:55:28.799Z,52.56
2019-05-12T20:01:34.509Z,52.27
2019-05-12T20:07:39.220Z,53.10
2019-05-12T20:13:44.480Z,54.45
2019-05-12T20:19:49.205Z,54.50
2019-05-12T20:25:53.797Z,55.39
2019-05-12T20:31:58.390Z,55.57
2019-05-12T20:38:04.145Z,56.08
2019-05-12T20:44:09.813Z,56.62
2019-05-12T20:50:15.377Z,57.32
2019-05-12T20:56:21.961Z,57.10
2019-05-12T21:02:26.216Z,57.65
2019-05-12T21:08:30.764Z,58.12
2019-05-12T21:14:35.314Z,58.53
2019-05-12T21:20:39.928Z,59.65
2019-05-12T21:26:44.492Z,60.75
2019-05-12T21:32:56.527Z,61.93
2019-05-12T21:38:59.561Z,64.23
2019-05-12T21:45:04.270Z,63.59
2019-05-12T21:51:09.834Z,63.51
2019-05-12T21:57:14.140Z,63.70
2019-05-12T22:03:18.916Z,63.95
2019-05-12T22:09:24.071Z,64.68
2019-05-12T22:15:28.973Z,65.83
2019-05-12T22:21:35.755Z,66.96
2019-05-12T22:27:39.867Z,67.59
2019-05-12T22:33:49.740Z,68.62
2019-05-12T22:39:50.676Z,69.55
2019-05-12T22:45:55.309Z,70.52
2019-05-12T22:52:02.802Z,71.09
2019-05-12T22:58:10.880Z,71.78
2019-05-12T23:04:14.250Z,72.82
2019-05-12T23:10:19.060Z,72.30
2019-05-12T23:16:27.675Z,72.18
2019-05-12T23:22:35.224Z,72.74
2019-05-12T23:28:40.530Z,73.19
2019-05-12T23:34:45.079Z,73.76
2019-05-12T23:40:48.919Z,75.33
2019-05-12T23:46:53.895Z,76.11
2019-05-12T23:52:58.595Z,76.99
2019-05-12T23:59:04.496Z,76.81
